Satellite Precipitation Estimates (TXUS20 KWBC)
Issued by NWS

Home | Current Version | Previous Version | Text Only | Print | Product List | Glossary On
Versions: 1 2 3 4 5 6
027
SPTD31 TTPP 181228 RRA
SPECI
TTCP 181220Z 25013G32KT 4000 SHRA FEW010CB BKN015 27/24 Q1012
NOSIG RMK CB NE NW=



USA.gov is the U.S. government's official web portal to all federal, state and local government web resources and services.